sensor_id;sensor_type;location;lat;lon;timestamp;P1;durP1;ratioP1;P2;durP2;ratioP2
25359;SDS011;13311;51.386;0.016;2024-02-23T00:03:15;11.70;;;1.60;;
25359;SDS011;13311;51.386;0.016;2024-02-23T00:08:16;5.97;;;1.85;;
25359;SDS011;13311;51.386;0.016;2024-02-23T00:13:19;8.88;;;2.08;;
25359;SDS011;13311;51.386;0.016;2024-02-23T00:18:19;9.43;;;2.63;;
25359;SDS011;13311;51.386;0.016;2024-02-23T00:23:20;11.85;;;2.42;;
25359;SDS011;13311;51.386;0.016;2024-02-23T00:28:21;6.93;;;1.50;;
25359;SDS011;13311;51.386;0.016;2024-02-23T00:33:22;11.07;;;2.28;;
25359;SDS011;13311;51.386;0.016;2024-02-23T00:38:23;12.95;;;2.25;;
25359;SDS011;13311;51.386;0.016;2024-02-23T00:43:24;7.30;;;2.20;;
25359;SDS011;13311;51.386;0.016;2024-02-23T00:48:25;9.80;;;2.38;;
25359;SDS011;13311;51.386;0.016;2024-02-23T00:53:25;11.40;;;2.53;;
25359;SDS011;13311;51.386;0.016;2024-02-23T00:58:26;5.15;;;1.42;;
25359;SDS011;13311;51.386;0.016;2024-02-23T01:03:27;17.17;;;2.65;;
25359;SDS011;13311;51.386;0.016;2024-02-23T01:08:27;14.25;;;2.88;;
25359;SDS011;13311;51.386;0.016;2024-02-23T01:13:28;15.02;;;2.38;;
25359;SDS011;13311;51.386;0.016;2024-02-23T01:18:29;8.68;;;2.33;;
25359;SDS011;13311;51.386;0.016;2024-02-23T01:23:30;9.48;;;2.60;;
25359;SDS011;13311;51.386;0.016;2024-02-23T01:28:30;15.10;;;2.67;;
25359;SDS011;13311;51.386;0.016;2024-02-23T01:33:31;16.40;;;3.08;;
25359;SDS011;13311;51.386;0.016;2024-02-23T01:38:32;17.13;;;3.30;;
25359;SDS011;13311;51.386;0.016;2024-02-23T01:43:33;11.63;;;2.28;;
25359;SDS011;13311;51.386;0.016;2024-02-23T01:48:34;13.02;;;2.97;;
25359;SDS011;13311;51.386;0.016;2024-02-23T01:53:35;11.25;;;2.25;;
25359;SDS011;13311;51.386;0.016;2024-02-23T01:58:36;13.85;;;3.13;;
25359;SDS011;13311;51.386;0.016;2024-02-23T02:03:38;13.88;;;2.92;;
25359;SDS011;13311;51.386;0.016;2024-02-23T02:08:39;13.13;;;2.45;;
25359;SDS011;13311;51.386;0.016;2024-02-23T02:13:40;11.70;;;2.50;;
25359;SDS011;13311;51.386;0.016;2024-02-23T02:18:41;10.32;;;2.40;;
25359;SDS011;13311;51.386;0.016;2024-02-23T02:23:42;20.02;;;3.35;;
25359;SDS011;13311;51.386;0.016;2024-02-23T02:28:43;15.90;;;2.33;;
25359;SDS011;13311;51.386;0.016;2024-02-23T02:33:43;11.43;;;3.20;;
25359;SDS011;13311;51.386;0.016;2024-02-23T02:38:44;13.20;;;3.10;;
25359;SDS011;13311;51.386;0.016;2024-02-23T02:43:45;16.85;;;2.67;;
25359;SDS011;13311;51.386;0.016;2024-02-23T02:48:45;12.80;;;2.75;;
25359;SDS011;13311;51.386;0.016;2024-02-23T02:53:46;14.25;;;2.00;;
25359;SDS011;13311;51.386;0.016;2024-02-23T02:58:47;11.27;;;1.77;;
25359;SDS011;13311;51.386;0.016;2024-02-23T03:03:48;13.57;;;1.73;;
25359;SDS011;13311;51.386;0.016;2024-02-23T03:08:48;10.80;;;1.52;;
25359;SDS011;13311;51.386;0.016;2024-02-23T03:13:49;8.60;;;2.08;;
25359;SDS011;13311;51.386;0.016;2024-02-23T03:18:50;14.82;;;2.05;;
25359;SDS011;13311;51.386;0.016;2024-02-23T03:23:50;7.97;;;1.92;;
25359;SDS011;13311;51.386;0.016;2024-02-23T03:28:51;8.18;;;1.65;;
25359;SDS011;13311;51.386;0.016;2024-02-23T03:33:52;14.13;;;1.65;;
25359;SDS011;13311;51.386;0.016;2024-02-23T03:38:53;10.57;;;1.90;;
25359;SDS011;13311;51.386;0.016;2024-02-23T03:43:53;7.57;;;1.45;;
25359;SDS011;13311;51.386;0.016;2024-02-23T03:48:54;6.10;;;1.45;;
25359;SDS011;13311;51.386;0.016;2024-02-23T03:53:55;5.65;;;1.35;;
25359;SDS011;13311;51.386;0.016;2024-02-23T03:58:56;6.65;;;1.40;;
25359;SDS011;13311;51.386;0.016;2024-02-23T04:03:57;6.18;;;1.38;;
25359;SDS011;13311;51.386;0.016;2024-02-23T04:08:58;5.65;;;1.63;;
25359;SDS011;13311;51.386;0.016;2024-02-23T04:13:58;7.68;;;1.70;;
25359;SDS011;13311;51.386;0.016;2024-02-23T04:19:00;3.83;;;1.08;;
25359;SDS011;13311;51.386;0.016;2024-02-23T04:24:01;9.55;;;1.45;;
25359;SDS011;13311;51.386;0.016;2024-02-23T04:29:01;7.80;;;1.33;;
25359;SDS011;13311;51.386;0.016;2024-02-23T04:34:02;6.13;;;1.70;;
25359;SDS011;13311;51.386;0.016;2024-02-23T04:39:03;7.43;;;1.20;;
25359;SDS011;13311;51.386;0.016;2024-02-23T04:44:04;4.00;;;1.25;;
25359;SDS011;13311;51.386;0.016;2024-02-23T04:49:05;6.53;;;1.10;;
25359;SDS011;13311;51.386;0.016;2024-02-23T04:54:05;5.82;;;1.20;;
25359;SDS011;13311;51.386;0.016;2024-02-23T04:59:06;6.63;;;1.02;;
25359;SDS011;13311;51.386;0.016;2024-02-23T05:04:07;2.45;;;0.70;;
25359;SDS011;13311;51.386;0.016;2024-02-23T05:09:07;5.25;;;1.10;;
25359;SDS011;13311;51.386;0.016;2024-02-23T05:14:09;2.47;;;0.85;;
25359;SDS011;13311;51.386;0.016;2024-02-23T05:19:09;5.03;;;0.90;;
25359;SDS011;13311;51.386;0.016;2024-02-23T05:24:11;3.95;;;0.73;;
25359;SDS011;13311;51.386;0.016;2024-02-23T05:29:12;5.65;;;0.90;;
25359;SDS011;13311;51.386;0.016;2024-02-23T05:34:17;4.95;;;0.70;;
25359;SDS011;13311;51.386;0.016;2024-02-23T05:39:19;7.63;;;1.92;;
25359;SDS011;13311;51.386;0.016;2024-02-23T05:44:19;2.45;;;0.95;;
25359;SDS011;13311;51.386;0.016;2024-02-23T05:49:20;2.05;;;0.50;;
25359;SDS011;13311;51.386;0.016;2024-02-23T05:54:21;3.83;;;1.27;;
25359;SDS011;13311;51.386;0.016;2024-02-23T05:59:22;3.67;;;0.77;;
25359;SDS011;13311;51.386;0.016;2024-02-23T06:04:23;4.35;;;0.82;;
25359;SDS011;13311;51.386;0.016;2024-02-23T06:09:24;3.60;;;0.90;;
25359;SDS011;13311;51.386;0.016;2024-02-23T06:14:24;5.60;;;1.17;;
25359;SDS011;13311;51.386;0.016;2024-02-23T06:19:25;8.30;;;1.30;;
25359;SDS011;13311;51.386;0.016;2024-02-23T06:24:26;3.30;;;0.82;;
25359;SDS011;13311;51.386;0.016;2024-02-23T06:29:27;4.63;;;1.35;;
25359;SDS011;13311;51.386;0.016;2024-02-23T06:34:27;5.18;;;0.93;;
25359;SDS011;13311;51.386;0.016;2024-02-23T06:39:28;8.88;;;1.17;;
25359;SDS011;13311;51.386;0.016;2024-02-23T06:44:29;4.22;;;0.90;;
25359;SDS011;13311;51.386;0.016;2024-02-23T06:49:30;4.40;;;1.33;;
25359;SDS011;13311;51.386;0.016;2024-02-23T06:54:31;7.18;;;1.10;;
25359;SDS011;13311;51.386;0.016;2024-02-23T06:59:31;4.03;;;1.10;;
25359;SDS011;13311;51.386;0.016;2024-02-23T07:04:32;4.03;;;1.00;;
25359;SDS011;13311;51.386;0.016;2024-02-23T07:09:34;3.97;;;0.90;;
25359;SDS011;13311;51.386;0.016;2024-02-23T07:14:35;8.63;;;1.40;;
25359;SDS011;13311;51.386;0.016;2024-02-23T07:19:35;4.93;;;1.27;;
25359;SDS011;13311;51.386;0.016;2024-02-23T07:24:39;8.02;;;2.08;;
25359;SDS011;13311;51.386;0.016;2024-02-23T07:29:44;10.10;;;1.38;;
25359;SDS011;13311;51.386;0.016;2024-02-23T07:34:45;5.93;;;1.38;;
25359;SDS011;13311;51.386;0.016;2024-02-23T07:39:46;7.07;;;0.93;;
25359;SDS011;13311;51.386;0.016;2024-02-23T07:44:47;4.22;;;0.88;;
25359;SDS011;13311;51.386;0.016;2024-02-23T07:49:47;5.70;;;1.20;;
25359;SDS011;13311;51.386;0.016;2024-02-23T07:54:48;6.07;;;1.30;;
25359;SDS011;13311;51.386;0.016;2024-02-23T07:59:52;5.38;;;1.42;;
25359;SDS011;13311;51.386;0.016;2024-02-23T08:04:53;9.30;;;2.03;;
25359;SDS011;13311;51.386;0.016;2024-02-23T08:09:54;8.80;;;1.75;;
25359;SDS011;13311;51.386;0.016;2024-02-23T08:14:54;3.60;;;1.02;;
25359;SDS011;13311;51.386;0.016;2024-02-23T08:19:55;6.07;;;1.13;;
25359;SDS011;13311;51.386;0.016;2024-02-23T08:24:58;11.18;;;2.20;;
25359;SDS011;13311;51.386;0.016;2024-02-23T08:29:59;6.63;;;1.27;;
25359;SDS011;13311;51.386;0.016;2024-02-23T08:35:00;3.67;;;1.35;;
25359;SDS011;13311;51.386;0.016;2024-02-23T08:40:00;5.80;;;1.40;;
25359;SDS011;13311;51.386;0.016;2024-02-23T08:45:01;5.18;;;1.10;;
25359;SDS011;13311;51.386;0.016;2024-02-23T08:50:02;4.18;;;1.23;;
25359;SDS011;13311;51.386;0.016;2024-02-23T08:55:04;6.85;;;2.00;;
25359;SDS011;13311;51.386;0.016;2024-02-23T09:00:05;10.07;;;1.95;;
25359;SDS011;13311;51.386;0.016;2024-02-23T09:05:07;2.13;;;1.02;;
25359;SDS011;13311;51.386;0.016;2024-02-23T09:10:09;5.82;;;1.55;;
25359;SDS011;13311;51.386;0.016;2024-02-23T09:15:09;10.10;;;1.88;;
25359;SDS011;13311;51.386;0.016;2024-02-23T09:20:11;9.68;;;1.42;;
25359;SDS011;13311;51.386;0.016;2024-02-23T09:25:12;7.07;;;1.30;;
25359;SDS011;13311;51.386;0.016;2024-02-23T09:30:13;9.35;;;1.58;;
25359;SDS011;13311;51.386;0.016;2024-02-23T09:35:14;2.90;;;1.38;;
25359;SDS011;13311;51.386;0.016;2024-02-23T09:40:15;6.28;;;1.75;;
25359;SDS011;13311;51.386;0.016;2024-02-23T09:45:16;4.82;;;1.00;;
25359;SDS011;13311;51.386;0.016;2024-02-23T09:50:17;5.60;;;1.55;;
25359;SDS011;13311;51.386;0.016;2024-02-23T09:55:21;4.72;;;0.90;;
25359;SDS011;13311;51.386;0.016;2024-02-23T10:00:23;6.55;;;1.65;;
25359;SDS011;13311;51.386;0.016;2024-02-23T10:05:27;5.88;;;1.02;;
25359;SDS011;13311;51.386;0.016;2024-02-23T10:10:34;4.10;;;1.33;;
25359;SDS011;13311;51.386;0.016;2024-02-23T10:15:38;7.07;;;1.20;;
25359;SDS011;13311;51.386;0.016;2024-02-23T10:20:39;4.85;;;1.10;;
25359;SDS011;13311;51.386;0.016;2024-02-23T10:25:40;7.38;;;1.17;;
25359;SDS011;13311;51.386;0.016;2024-02-23T10:30:41;4.63;;;1.20;;
25359;SDS011;13311;51.386;0.016;2024-02-23T10:35:42;9.50;;;2.05;;
25359;SDS011;13311;51.386;0.016;2024-02-23T10:40:45;5.38;;;1.50;;
25359;SDS011;13311;51.386;0.016;2024-02-23T10:45:47;5.85;;;1.23;;
25359;SDS011;13311;51.386;0.016;2024-02-23T10:50:49;6.60;;;1.58;;
25359;SDS011;13311;51.386;0.016;2024-02-23T10:55:59;6.32;;;1.63;;
25359;SDS011;13311;51.386;0.016;2024-02-23T11:01:01;7.68;;;1.92;;
25359;SDS011;13311;51.386;0.016;2024-02-23T11:06:06;5.90;;;1.33;;
25359;SDS011;13311;51.386;0.016;2024-02-23T11:11:08;5.25;;;1.80;;
25359;SDS011;13311;51.386;0.016;2024-02-23T11:16:09;9.18;;;1.60;;
25359;SDS011;13311;51.386;0.016;2024-02-23T11:21:10;12.05;;;2.60;;
25359;SDS011;13311;51.386;0.016;2024-02-23T11:26:12;6.75;;;1.98;;
25359;SDS011;13311;51.386;0.016;2024-02-23T11:31:16;5.00;;;1.85;;
25359;SDS011;13311;51.386;0.016;2024-02-23T11:36:24;8.32;;;1.83;;
25359;SDS011;13311;51.386;0.016;2024-02-23T11:41:29;7.20;;;1.58;;
25359;SDS011;13311;51.386;0.016;2024-02-23T11:46:30;11.27;;;2.25;;
25359;SDS011;13311;51.386;0.016;2024-02-23T11:51:31;6.40;;;1.30;;
25359;SDS011;13311;51.386;0.016;2024-02-23T11:56:32;12.80;;;3.00;;
25359;SDS011;13311;51.386;0.016;2024-02-23T12:01:33;4.53;;;1.13;;
25359;SDS011;13311;51.386;0.016;2024-02-23T12:06:33;8.07;;;2.28;;
25359;SDS011;13311;51.386;0.016;2024-02-23T12:11:34;6.88;;;2.15;;
25359;SDS011;13311;51.386;0.016;2024-02-23T12:16:36;5.43;;;1.73;;
25359;SDS011;13311;51.386;0.016;2024-02-23T12:21:36;8.32;;;2.67;;
25359;SDS011;13311;51.386;0.016;2024-02-23T12:26:37;3.80;;;1.40;;
25359;SDS011;13311;51.386;0.016;2024-02-23T12:31:38;12.60;;;2.63;;
25359;SDS011;13311;51.386;0.016;2024-02-23T12:36:39;10.80;;;2.03;;
25359;SDS011;13311;51.386;0.016;2024-02-23T12:41:40;5.93;;;1.90;;
25359;SDS011;13311;51.386;0.016;2024-02-23T12:46:40;4.88;;;1.60;;
25359;SDS011;13311;51.386;0.016;2024-02-23T12:51:41;5.68;;;1.65;;
25359;SDS011;13311;51.386;0.016;2024-02-23T12:56:42;5.85;;;2.42;;
25359;SDS011;13311;51.386;0.016;2024-02-23T13:01:43;5.93;;;1.67;;
25359;SDS011;13311;51.386;0.016;2024-02-23T13:06:43;10.15;;;2.08;;
25359;SDS011;13311;51.386;0.016;2024-02-23T13:11:44;8.38;;;2.63;;
25359;SDS011;13311;51.386;0.016;2024-02-23T13:16:46;15.35;;;2.95;;
25359;SDS011;13311;51.386;0.016;2024-02-23T13:21:47;8.13;;;2.53;;
25359;SDS011;13311;51.386;0.016;2024-02-23T13:26:48;9.77;;;2.15;;
25359;SDS011;13311;51.386;0.016;2024-02-23T13:31:49;10.95;;;2.08;;
25359;SDS011;13311;51.386;0.016;2024-02-23T13:36:49;6.70;;;1.98;;
25359;SDS011;13311;51.386;0.016;2024-02-23T13:41:52;10.45;;;2.83;;
25359;SDS011;13311;51.386;0.016;2024-02-23T13:46:54;10.68;;;2.92;;
25359;SDS011;13311;51.386;0.016;2024-02-23T13:51:56;9.13;;;2.13;;
25359;SDS011;13311;51.386;0.016;2024-02-23T13:56:57;7.55;;;1.63;;
25359;SDS011;13311;51.386;0.016;2024-02-23T14:01:57;9.07;;;2.63;;
25359;SDS011;13311;51.386;0.016;2024-02-23T14:06:58;9.70;;;2.55;;
25359;SDS011;13311;51.386;0.016;2024-02-23T14:11:59;9.68;;;2.42;;
25359;SDS011;13311;51.386;0.016;2024-02-23T14:17:00;5.63;;;1.70;;
25359;SDS011;13311;51.386;0.016;2024-02-23T14:22:00;9.25;;;2.33;;
25359;SDS011;13311;51.386;0.016;2024-02-23T14:27:01;5.38;;;1.63;;
25359;SDS011;13311;51.386;0.016;2024-02-23T14:32:02;9.48;;;2.40;;
25359;SDS011;13311;51.386;0.016;2024-02-23T14:37:06;7.75;;;2.20;;
25359;SDS011;13311;51.386;0.016;2024-02-23T14:42:06;7.28;;;2.00;;
25359;SDS011;13311;51.386;0.016;2024-02-23T14:47:10;4.50;;;1.30;;
25359;SDS011;13311;51.386;0.016;2024-02-23T14:52:13;6.82;;;1.55;;
25359;SDS011;13311;51.386;0.016;2024-02-23T14:57:15;7.80;;;2.00;;
25359;SDS011;13311;51.386;0.016;2024-02-23T15:02:19;5.30;;;1.20;;
25359;SDS011;13311;51.386;0.016;2024-02-23T15:07:21;2.50;;;0.85;;
25359;SDS011;13311;51.386;0.016;2024-02-23T15:12:22;1.15;;;0.50;;
25359;SDS011;13311;51.386;0.016;2024-02-23T15:17:24;0.88;;;0.30;;
25359;SDS011;13311;51.386;0.016;2024-02-23T15:22:25;0.20;;;0.20;;
25359;SDS011;13311;51.386;0.016;2024-02-23T15:27:26;7.65;;;1.10;;
25359;SDS011;13311;51.386;0.016;2024-02-23T15:32:27;3.85;;;0.80;;
25359;SDS011;13311;51.386;0.016;2024-02-23T15:37:28;3.00;;;0.52;;
25359;SDS011;13311;51.386;0.016;2024-02-23T15:42:29;3.25;;;0.90;;
25359;SDS011;13311;51.386;0.016;2024-02-23T15:47:30;1.85;;;0.68;;
25359;SDS011;13311;51.386;0.016;2024-02-23T15:52:31;2.67;;;0.75;;
25359;SDS011;13311;51.386;0.016;2024-02-23T15:57:32;6.30;;;0.75;;
25359;SDS011;13311;51.386;0.016;2024-02-23T16:02:34;2.78;;;0.77;;
25359;SDS011;13311;51.386;0.016;2024-02-23T16:07:35;7.07;;;1.52;;
25359;SDS011;13311;51.386;0.016;2024-02-23T16:12:36;3.78;;;0.85;;
25359;SDS011;13311;51.386;0.016;2024-02-23T16:17:37;3.47;;;1.00;;
25359;SDS011;13311;51.386;0.016;2024-02-23T16:22:37;1.42;;;0.40;;
25359;SDS011;13311;51.386;0.016;2024-02-23T16:27:38;2.25;;;0.77;;
25359;SDS011;13311;51.386;0.016;2024-02-23T16:32:41;1.60;;;0.95;;
25359;SDS011;13311;51.386;0.016;2024-02-23T16:37:42;4.72;;;1.33;;
25359;SDS011;13311;51.386;0.016;2024-02-23T16:42:43;5.10;;;1.67;;
25359;SDS011;13311;51.386;0.016;2024-02-23T16:47:44;5.28;;;1.25;;
25359;SDS011;13311;51.386;0.016;2024-02-23T16:52:45;6.43;;;1.88;;
25359;SDS011;13311;51.386;0.016;2024-02-23T16:57:46;3.70;;;1.73;;
25359;SDS011;13311;51.386;0.016;2024-02-23T17:02:47;3.22;;;0.95;;
25359;SDS011;13311;51.386;0.016;2024-02-23T17:07:47;1.58;;;0.50;;
25359;SDS011;13311;51.386;0.016;2024-02-23T17:12:48;0.95;;;0.57;;
25359;SDS011;13311;51.386;0.016;2024-02-23T17:17:49;2.50;;;0.40;;
25359;SDS011;13311;51.386;0.016;2024-02-23T17:22:50;1.25;;;0.57;;
25359;SDS011;13311;51.386;0.016;2024-02-23T17:27:51;0.77;;;0.47;;
25359;SDS011;13311;51.386;0.016;2024-02-23T17:32:52;1.00;;;0.57;;
25359;SDS011;13311;51.386;0.016;2024-02-23T17:37:54;1.38;;;0.57;;
25359;SDS011;13311;51.386;0.016;2024-02-23T17:42:55;1.90;;;0.80;;
25359;SDS011;13311;51.386;0.016;2024-02-23T17:47:56;1.92;;;0.88;;
25359;SDS011;13311;51.386;0.016;2024-02-23T17:52:57;3.38;;;1.27;;
25359;SDS011;13311;51.386;0.016;2024-02-23T17:57:59;2.63;;;1.30;;
25359;SDS011;13311;51.386;0.016;2024-02-23T18:03:00;4.00;;;2.42;;
25359;SDS011;13311;51.386;0.016;2024-02-23T18:08:02;7.78;;;3.22;;
25359;SDS011;13311;51.386;0.016;2024-02-23T18:13:03;3.05;;;2.20;;
25359;SDS011;13311;51.386;0.016;2024-02-23T18:18:04;4.35;;;1.92;;
25359;SDS011;13311;51.386;0.016;2024-02-23T18:23:05;6.15;;;3.20;;
25359;SDS011;13311;51.386;0.016;2024-02-23T18:28:06;5.95;;;3.83;;
25359;SDS011;13311;51.386;0.016;2024-02-23T18:33:06;4.80;;;2.47;;
25359;SDS011;13311;51.386;0.016;2024-02-23T18:38:07;4.70;;;2.53;;
25359;SDS011;13311;51.386;0.016;2024-02-23T18:43:08;6.72;;;3.45;;
25359;SDS011;13311;51.386;0.016;2024-02-23T18:48:08;9.13;;;4.78;;
25359;SDS011;13311;51.386;0.016;2024-02-23T18:53:10;6.45;;;4.18;;
25359;SDS011;13311;51.386;0.016;2024-02-23T18:58:12;5.07;;;3.83;;
25359;SDS011;13311;51.386;0.016;2024-02-23T19:03:12;4.43;;;2.58;;
25359;SDS011;13311;51.386;0.016;2024-02-23T19:08:13;3.88;;;2.10;;
25359;SDS011;13311;51.386;0.016;2024-02-23T19:13:14;2.75;;;1.80;;
25359;SDS011;13311;51.386;0.016;2024-02-23T19:18:15;4.00;;;2.17;;
25359;SDS011;13311;51.386;0.016;2024-02-23T19:23:16;5.03;;;2.88;;
25359;SDS011;13311;51.386;0.016;2024-02-23T19:28:17;5.72;;;3.22;;
25359;SDS011;13311;51.386;0.016;2024-02-23T19:33:18;6.97;;;2.53;;
25359;SDS011;13311;51.386;0.016;2024-02-23T19:38:19;5.13;;;2.20;;
25359;SDS011;13311;51.386;0.016;2024-02-23T19:43:20;7.70;;;2.58;;
25359;SDS011;13311;51.386;0.016;2024-02-23T19:48:21;3.78;;;2.13;;
25359;SDS011;13311;51.386;0.016;2024-02-23T19:53:21;6.97;;;2.35;;
25359;SDS011;13311;51.386;0.016;2024-02-23T19:58:22;6.57;;;2.70;;
25359;SDS011;13311;51.386;0.016;2024-02-23T20:03:23;5.13;;;2.40;;
25359;SDS011;13311;51.386;0.016;2024-02-23T20:08:24;4.28;;;2.22;;
25359;SDS011;13311;51.386;0.016;2024-02-23T20:13:25;3.40;;;1.88;;
25359;SDS011;13311;51.386;0.016;2024-02-23T20:18:29;6.07;;;2.50;;
25359;SDS011;13311;51.386;0.016;2024-02-23T20:23:29;2.95;;;2.30;;
25359;SDS011;13311;51.386;0.016;2024-02-23T20:28:30;5.28;;;2.30;;
25359;SDS011;13311;51.386;0.016;2024-02-23T20:33:34;6.07;;;3.00;;
25359;SDS011;13311;51.386;0.016;2024-02-23T20:38:34;6.13;;;3.22;;
25359;SDS011;13311;51.386;0.016;2024-02-23T20:43:35;10.55;;;4.78;;
25359;SDS011;13311;51.386;0.016;2024-02-23T20:48:36;13.75;;;8.10;;
25359;SDS011;13311;51.386;0.016;2024-02-23T20:53:36;12.60;;;7.57;;
25359;SDS011;13311;51.386;0.016;2024-02-23T20:58:37;13.68;;;6.07;;
25359;SDS011;13311;51.386;0.016;2024-02-23T21:03:38;8.05;;;4.72;;
25359;SDS011;13311;51.386;0.016;2024-02-23T21:08:38;9.95;;;5.55;;
25359;SDS011;13311;51.386;0.016;2024-02-23T21:13:39;10.05;;;5.13;;
25359;SDS011;13311;51.386;0.016;2024-02-23T21:18:41;7.07;;;4.35;;
25359;SDS011;13311;51.386;0.016;2024-02-23T21:23:41;5.38;;;3.67;;
25359;SDS011;13311;51.386;0.016;2024-02-23T21:28:42;7.53;;;4.32;;
25359;SDS011;13311;51.386;0.016;2024-02-23T21:33:43;8.80;;;4.55;;
25359;SDS011;13311;51.386;0.016;2024-02-23T21:38:51;14.43;;;6.10;;
25359;SDS011;13311;51.386;0.016;2024-02-23T21:43:52;21.52;;;7.82;;
25359;SDS011;13311;51.386;0.016;2024-02-23T21:48:52;8.07;;;5.03;;
25359;SDS011;13311;51.386;0.016;2024-02-23T21:53:53;12.40;;;7.60;;
25359;SDS011;13311;51.386;0.016;2024-02-23T21:58:54;9.90;;;6.05;;
25359;SDS011;13311;51.386;0.016;2024-02-23T22:03:55;6.78;;;4.05;;
25359;SDS011;13311;51.386;0.016;2024-02-23T22:08:55;6.82;;;3.90;;
25359;SDS011;13311;51.386;0.016;2024-02-23T22:13:56;8.57;;;3.65;;
25359;SDS011;13311;51.386;0.016;2024-02-23T22:18:57;8.32;;;4.35;;
25359;SDS011;13311;51.386;0.016;2024-02-23T22:23:57;6.75;;;3.72;;
25359;SDS011;13311;51.386;0.016;2024-02-23T22:28:58;10.48;;;4.55;;
25359;SDS011;13311;51.386;0.016;2024-02-23T22:33:59;7.55;;;3.60;;
25359;SDS011;13311;51.386;0.016;2024-02-23T22:38:59;6.68;;;4.03;;
25359;SDS011;13311;51.386;0.016;2024-02-23T22:44:00;7.53;;;3.35;;
25359;SDS011;13311;51.386;0.016;2024-02-23T22:49:03;7.13;;;3.53;;
25359;SDS011;13311;51.386;0.016;2024-02-23T22:54:04;4.97;;;3.17;;
25359;SDS011;13311;51.386;0.016;2024-02-23T22:59:04;5.82;;;3.30;;
25359;SDS011;13311;51.386;0.016;2024-02-23T23:04:08;5.25;;;2.92;;
25359;SDS011;13311;51.386;0.016;2024-02-23T23:09:09;5.28;;;3.25;;
25359;SDS011;13311;51.386;0.016;2024-02-23T23:14:14;6.22;;;3.53;;
25359;SDS011;13311;51.386;0.016;2024-02-23T23:19:15;7.15;;;3.38;;
25359;SDS011;13311;51.386;0.016;2024-02-23T23:24:16;8.77;;;4.03;;
25359;SDS011;13311;51.386;0.016;2024-02-23T23:29:17;5.03;;;3.65;;
25359;SDS011;13311;51.386;0.016;2024-02-23T23:34:17;5.63;;;3.20;;
25359;SDS011;13311;51.386;0.016;2024-02-23T23:39:19;7.25;;;3.75;;
25359;SDS011;13311;51.386;0.016;2024-02-23T23:44:19;5.90;;;3.72;;
25359;SDS011;13311;51.386;0.016;2024-02-23T23:49:20;7.90;;;3.55;;
25359;SDS011;13311;51.386;0.016;2024-02-23T23:54:21;9.15;;;3.75;;
25359;SDS011;13311;51.386;0.016;2024-02-23T23:59:22;5.25;;;3.42;;
